»·PEaware :: N9229P KTRM-KKNB

N9229P :: KTRM-KKNB

FLIGHT INFORMATION

Flight Status: Arrived
Operator: Privately registered:
United States
More flights under this callsign
Pilot: James W. (24810)
Aircraft: PIPER PA-24 COMMANCHE
(PA24)
More flights by this aircraft type
Origin: KTRM Desert Resorts Regl
United States
Destination: KKNB Kanab Mun
United States
More flights between these airports :: More routes between these airports
Route: MECCA1 TNP V514 GFS COWBY DEDKE
File this flight plan on PilotEdge
Remarks:
Altitude:
(Current/Filed)
11,000ft
Speed:
(Current/Filed)
175kts
Departed: 26-Dec-20 04:23 PM
Arrived: 26-Dec-20 06:11 PM
Distance/Time
Traveled:
270nm/1:48
Distance/Time
To Go:
Arrived

Flight Plot

Page will automatically refresh every two minutes.

Flight plan parsing failed; only flown route is shown


Map Options




Map Legend


Flown Route
Filed Route
Departure Airport
Arrival Airport
Navaid (VOR, NDB)
Fix

Horizontal Profiles

Position Reports

Time Latitude Longitude Heading Altitude Ground
Speed
26-Dec-20 16:05 33.634795 -116.160934 269 -115ft 0kts
26-Dec-20 16:06 33.634795 -116.160934 269 -115ft 0kts
26-Dec-20 16:07 33.634795 -116.160934 269 -115ft 0kts
26-Dec-20 16:08 33.634795 -116.160934 269 -115ft 0kts
26-Dec-20 16:09 33.634795 -116.160934 269 -115ft 0kts
26-Dec-20 16:10 33.634795 -116.160934 269 -115ft 0kts
26-Dec-20 16:11 33.634795 -116.160934 269 -115ft 0kts
26-Dec-20 16:12 33.634795 -116.160934 269 -115ft 0kts
26-Dec-20 16:13 33.634795 -116.160934 269 -115ft 0kts
26-Dec-20 16:14 33.634795 -116.160934 269 -115ft 0kts
26-Dec-20 16:15 33.634162 -116.159721 90 -116ft 9kts
26-Dec-20 16:16 33.632393 -116.157727 179 -119ft 23kts
26-Dec-20 16:17 33.624949 -116.157724 179 -126ft 26kts
26-Dec-20 16:18 33.619240 -116.157708 179 -130ft 20kts
26-Dec-20 16:19 33.615867 -116.157406 89 -134ft 0kts
26-Dec-20 16:20 33.615867 -116.157406 89 -134ft 0kts
26-Dec-20 16:21 33.615868 -116.157202 89 -134ft 5kts
26-Dec-20 16:22 33.633990 -116.156928 359 269ft 130kts
26-Dec-20 16:24 33.650303 -116.129671 140 1268ft 147kts
26-Dec-20 16:25 33.612129 -116.143656 205 2205ft 155kts
26-Dec-20 16:26 33.577953 -116.130196 133 3116ft 149kts
26-Dec-20 16:27 33.545963 -116.100802 153 4014ft 145kts
26-Dec-20 16:28 33.534424 -116.064804 28 4918ft 168kts
26-Dec-20 16:29 33.569894 -116.092690 309 5840ft 162kts
26-Dec-20 16:30 33.602005 -116.130310 309 6740ft 159kts
26-Dec-20 16:31 33.639718 -116.150741 22 7628ft 168kts
26-Dec-20 16:32 33.678276 -116.120199 31 8530ft 165kts
26-Dec-20 16:33 33.717210 -116.089052 29 9266ft 174kts
26-Dec-20 16:34 33.758987 -116.055476 28 9777ft 184kts
26-Dec-20 16:35 33.801939 -116.020908 27 10282ft 186kts
26-Dec-20 16:35 33.837688 -115.992106 26 10702ft 185kts
26-Dec-20 16:37 33.887954 -115.951674 26 11066ft 193kts
26-Dec-20 16:38 33.933709 -115.914591 26 11074ft 201kts
26-Dec-20 16:38 33.972639 -115.883169 26 11074ft 202kts
26-Dec-20 16:40 34.027183 -115.839035 26 11075ft 203kts
26-Dec-20 16:41 34.074137 -115.800979 26 11075ft 203kts
26-Dec-20 16:42 34.112244 -115.752522 81 11072ft 214kts
26-Dec-20 16:42 34.112853 -115.692663 90 11074ft 213kts
26-Dec-20 16:43 34.118820 -115.621261 82 11075ft 214kts
26-Dec-20 16:44 34.158233 -115.588599 344 11071ft 183kts
26-Dec-20 16:45 34.208584 -115.594131 344 11075ft 182kts
26-Dec-20 16:46 34.259448 -115.598413 347 11076ft 184kts
26-Dec-20 16:47 34.303160 -115.564998 46 11076ft 209kts
26-Dec-20 16:48 34.345256 -115.521382 9 11076ft 195kts
26-Dec-20 16:49 34.396734 -115.499182 10 11076ft 196kts
26-Dec-20 16:50 34.447971 -115.476800 10 11076ft 196kts
26-Dec-20 16:51 34.499343 -115.454419 10 11076ft 196kts
26-Dec-20 16:52 34.550620 -115.432058 10 11075ft 196kts
26-Dec-20 16:53 34.602327 -115.409495 11 11057ft 198kts
26-Dec-20 16:54 34.653998 -115.386792 10 11034ft 191kts
26-Dec-20 16:55 34.700349 -115.357299 35 11019ft 198kts
26-Dec-20 16:56 34.739612 -115.310316 35 11006ft 197kts
26-Dec-20 16:57 34.779008 -115.264164 35 11006ft 196kts
26-Dec-20 16:58 34.818573 -115.218053 35 11007ft 197kts
26-Dec-20 16:59 34.858181 -115.171832 35 11007ft 197kts
26-Dec-20 17:00 34.897792 -115.125532 35 11007ft 197kts
26-Dec-20 17:01 34.937432 -115.079126 35 11007ft 197kts
26-Dec-20 17:02 34.977228 -115.032542 38 11009ft 202kts
26-Dec-20 17:03 35.018832 -114.983720 38 11004ft 210kts
26-Dec-20 17:04 35.061160 -114.933894 37 11001ft 212kts
26-Dec-20 17:05 35.103538 -114.883990 37 11000ft 212kts
26-Dec-20 17:06 35.145895 -114.834043 37 11000ft 212kts
26-Dec-20 17:07 35.188287 -114.783982 37 11000ft 212kts
26-Dec-20 17:08 35.230602 -114.733935 37 11001ft 212kts
26-Dec-20 17:09 35.273031 -114.683675 37 11001ft 212kts
26-Dec-20 17:10 35.315261 -114.633572 37 11002ft 212kts
26-Dec-20 17:11 35.357644 -114.583211 37 11002ft 212kts
26-Dec-20 17:12 35.400030 -114.532768 37 11003ft 212kts
26-Dec-20 17:13 35.442233 -114.482464 37 11003ft 212kts
26-Dec-20 17:14 35.484615 -114.431861 37 11018ft 212kts
26-Dec-20 17:15 35.526841 -114.381379 37 11031ft 212kts
26-Dec-20 17:16 35.568989 -114.330897 37 11033ft 211kts
26-Dec-20 17:17 35.610777 -114.280780 37 11043ft 210kts
26-Dec-20 17:18 35.652473 -114.230714 37 11053ft 210kts
26-Dec-20 17:19 35.694325 -114.180361 37 11051ft 210kts
26-Dec-20 17:20 35.736101 -114.130008 37 11045ft 210kts
26-Dec-20 17:21 35.777668 -114.079846 37 11044ft 209kts
26-Dec-20 17:22 35.819277 -114.029558 37 11049ft 209kts
26-Dec-20 17:23 35.860697 -113.979427 37 11055ft 210kts
26-Dec-20 17:24 35.902445 -113.928804 37 11055ft 210kts
26-Dec-20 17:25 35.944476 -113.878993 36 11056ft 210kts
26-Dec-20 17:26 35.982527 -113.823297 44 11057ft 212kts
26-Dec-20 17:27 36.021700 -113.768554 42 11055ft 212kts
26-Dec-20 17:28 36.060689 -113.713635 43 11051ft 213kts
26-Dec-20 17:29 36.099689 -113.658194 44 11048ft 214kts
26-Dec-20 17:30 36.138786 -113.602509 44 11041ft 214kts
26-Dec-20 17:31 36.176328 -113.548898 42 11524ft 201kts
26-Dec-20 17:32 36.214227 -113.495038 42 11541ft 210kts
26-Dec-20 17:33 36.252775 -113.440118 40 11553ft 210kts
26-Dec-20 17:34 36.290332 -113.386196 40 11555ft 204kts
26-Dec-20 17:35 36.327534 -113.332807 41 11555ft 204kts
26-Dec-20 17:36 36.364555 -113.279798 41 11560ft 204kts
26-Dec-20 17:37 36.401634 -113.226525 41 11558ft 204kts
26-Dec-20 17:38 36.438686 -113.172986 41 11562ft 204kts
26-Dec-20 17:39 36.475757 -113.119344 41 11563ft 204kts
26-Dec-20 17:40 36.512759 -113.065723 41 11562ft 204kts
26-Dec-20 17:41 36.549615 -113.012228 41 11563ft 204kts
26-Dec-20 17:42 36.586401 -112.958740 41 11564ft 203kts
26-Dec-20 17:43 36.622977 -112.905370 42 11564ft 202kts
26-Dec-20 17:44 36.659219 -112.852406 42 11564ft 200kts
26-Dec-20 17:45 36.695383 -112.799581 42 11565ft 199kts
26-Dec-20 17:46 36.731260 -112.747119 42 11566ft 198kts
26-Dec-20 17:47 36.763501 -112.699567 41 11556ft 162kts
26-Dec-20 17:48 36.790385 -112.660313 39 11564ft 140kts
26-Dec-20 17:49 36.814978 -112.624247 43 11564ft 135kts
26-Dec-20 17:50 36.805233 -112.593556 211 10980ft 117kts
26-Dec-20 17:51 36.776055 -112.609072 213 10466ft 112kts
26-Dec-20 17:52 36.747931 -112.623920 213 9976ft 109kts
26-Dec-20 17:53 36.719990 -112.638745 213 9484ft 109kts
26-Dec-20 17:54 36.692988 -112.654727 239 8989ft 101kts
26-Dec-20 17:55 36.703393 -112.677850 358 8495ft 108kts
26-Dec-20 17:56 36.732511 -112.664196 11 8263ft 107kts
26-Dec-20 17:57 36.759215 -112.651441 10 8264ft 100kts
26-Dec-20 17:58 36.785702 -112.638824 10 8265ft 103kts
26-Dec-20 17:59 36.812267 -112.625974 10 8254ft 98kts
26-Dec-20 18:00 36.838781 -112.613337 11 7761ft 102kts
26-Dec-20 18:01 36.865394 -112.600700 12 7268ft 103kts
26-Dec-20 18:02 36.891581 -112.588232 12 6882ft 98kts
26-Dec-20 18:03 36.917875 -112.575553 13 6401ft 99kts
26-Dec-20 18:04 36.942642 -112.563822 13 6150ft 97kts
26-Dec-20 18:05 36.966415 -112.547079 48 5653ft 105kts
26-Dec-20 18:06 36.986049 -112.524560 27 5794ft 103kts
26-Dec-20 18:07 37.010097 -112.506276 22 5793ft 100kts
26-Dec-20 18:08 37.030405 -112.508841 284 5422ft 87kts
26-Dec-20 18:09 37.015752 -112.529006 201 4848ft 70kts
26-Dec-20 18:10 37.010376 -112.530380 178 4834ft 1kts
26-Dec-20 18:11 37.010266 -112.530373 176 4834ft 0kts
26-Dec-20 18:13 37.010226 -112.530371 176 4833ft 0kts
26-Dec-20 18:14 37.010226 -112.530371 176 4833ft 0kts
26-Dec-20 18:15 37.010226 -112.530371 176 4833ft 0kts
26-Dec-20 18:16 37.010226 -112.530371 176 4833ft 0kts
26-Dec-20 18:17 37.010226 -112.530371 176 4833ft 0kts
26-Dec-20 18:18 37.010226 -112.530371 176 4833ft 0kts

Navigation Log

Ident Type
Flight plan parsing failed, navigation log unavailable